createdAt,value
2024-04-21T00:01:39.959Z,51.70
2024-04-21T00:04:07.549Z,51.70
2024-04-21T00:06:37.613Z,51.70
2024-04-21T00:09:07.682Z,51.70
2024-04-21T00:11:37.738Z,51.70
2024-04-21T00:14:05.227Z,51.60
2024-04-21T00:16:35.286Z,51.80
2024-04-21T00:19:02.922Z,51.80
2024-04-21T00:21:34.499Z,51.60
2024-04-21T00:24:01.925Z,51.70
2024-04-21T00:26:34.549Z,51.80
2024-04-21T00:29:05.649Z,51.80
2024-04-21T00:31:35.824Z,51.80
2024-04-21T00:34:03.364Z,51.90
2024-04-21T00:36:33.464Z,52.00
2024-04-21T00:39:00.886Z,51.80
2024-04-21T00:41:30.878Z,52.00
2024-04-21T00:44:00.964Z,52.10
2024-04-21T00:46:31.547Z,52.20
2024-04-21T00:48:58.979Z,52.20
2024-04-21T00:51:29.861Z,52.20
2024-04-21T00:53:57.665Z,52.20
2024-04-21T00:56:27.901Z,52.20
2024-04-21T00:58:56.682Z,52.20
2024-04-21T01:01:31.326Z,52.30
2024-04-21T01:03:59.910Z,52.30
2024-04-21T01:06:29.931Z,52.10
2024-04-21T01:08:57.590Z,52.20
2024-04-21T01:11:27.643Z,52.30
2024-04-21T01:13:55.033Z,52.20
2024-04-21T01:16:25.178Z,52.40
2024-04-21T01:18:55.334Z,52.40
2024-04-21T01:21:25.307Z,52.30
2024-04-21T01:23:55.365Z,52.40
2024-04-21T01:26:26.597Z,52.40
2024-04-21T01:28:53.970Z,52.50
2024-04-21T01:31:24.071Z,52.40
2024-04-21T01:33:51.455Z,52.40
2024-04-21T01:36:21.723Z,52.40
2024-04-21T01:38:49.149Z,52.30
2024-04-21T01:41:21.830Z,52.30
2024-04-21T01:43:49.203Z,52.50
2024-04-21T01:46:19.379Z,52.60
2024-04-21T01:48:47.183Z,52.60
2024-04-21T01:51:17.222Z,52.70
2024-04-21T01:53:44.561Z,52.70
2024-04-21T01:56:14.544Z,52.70
2024-04-21T01:58:44.542Z,52.70
2024-04-21T02:01:14.621Z,52.70
2024-04-21T02:03:42.051Z,52.70
2024-04-21T02:06:12.102Z,52.70
2024-04-21T02:08:39.445Z,52.70
2024-04-21T02:11:09.493Z,52.70
2024-04-21T02:13:36.975Z,52.70
2024-04-21T02:16:10.050Z,52.80
2024-04-21T02:18:37.483Z,52.70
2024-04-21T02:21:07.784Z,52.60
2024-04-21T02:23:35.376Z,52.70
2024-04-21T02:26:06.378Z,52.60
2024-04-21T02:28:33.763Z,52.50
2024-04-21T02:31:05.083Z,52.60
2024-04-21T02:33:35.295Z,52.50
2024-04-21T02:36:05.354Z,52.60
2024-04-21T02:38:32.779Z,52.60
2024-04-21T02:41:02.829Z,52.60
2024-04-21T02:43:30.226Z,52.70
2024-04-21T02:46:01.683Z,52.60
2024-04-21T02:48:30.823Z,52.50
2024-04-21T02:51:03.522Z,52.70
2024-04-21T02:53:30.892Z,52.70
2024-04-21T02:56:00.886Z,52.70
2024-04-21T02:58:28.280Z,52.60
2024-04-21T03:00:58.998Z,52.90
2024-04-21T03:03:26.522Z,52.80
2024-04-21T03:05:59.792Z,52.90
2024-04-21T03:08:29.857Z,52.70
2024-04-21T03:10:59.902Z,52.80
2024-04-21T03:13:28.334Z,52.80
2024-04-21T03:15:58.404Z,52.80
2024-04-21T03:18:27.327Z,52.90
2024-04-21T03:21:01.231Z,52.90
2024-04-21T03:23:31.343Z,52.90
2024-04-21T03:26:01.564Z,53.00
2024-04-21T03:28:29.028Z,53.10
2024-04-21T03:31:00.324Z,53.10
2024-04-21T03:33:28.390Z,53.10
2024-04-21T03:36:06.341Z,53.10
2024-04-21T03:38:40.081Z,53.10
2024-04-21T03:41:10.890Z,53.10
2024-04-21T03:43:41.044Z,53.00
2024-04-21T03:46:11.152Z,53.00
2024-04-21T03:48:38.556Z,53.00
2024-04-21T03:51:09.083Z,52.90
2024-04-21T03:53:39.102Z,53.00
2024-04-21T03:56:09.611Z,52.90
2024-04-21T03:58:36.981Z,52.90
2024-04-21T04:01:07.395Z,52.90
2024-04-21T04:03:34.945Z,52.80
2024-04-21T04:06:04.964Z,52.70
2024-04-21T04:08:32.337Z,52.80
2024-04-21T04:11:05.005Z,52.90
2024-04-21T04:13:32.494Z,52.70
2024-04-21T04:16:02.578Z,52.70
2024-04-21T04:18:30.014Z,52.80
2024-04-21T04:21:00.271Z,52.60
2024-04-21T04:23:27.680Z,52.50
2024-04-21T04:25:57.671Z,52.40
2024-04-21T04:28:27.804Z,52.00
2024-04-21T04:30:57.842Z,52.00
2024-04-21T04:33:25.295Z,51.90
2024-04-21T04:35:55.340Z,51.90
2024-04-21T04:38:22.762Z,51.80
2024-04-21T04:40:52.779Z,51.80
2024-04-21T04:43:20.372Z,51.70
2024-04-21T04:45:54.191Z,51.60
2024-04-21T04:48:21.665Z,51.30
2024-04-21T04:50:52.087Z,51.10
2024-04-21T04:53:19.505Z,51.20
2024-04-21T04:55:50.288Z,51.10
2024-04-21T04:58:20.326Z,51.00
2024-04-21T05:00:50.611Z,51.00
2024-04-21T05:03:20.857Z,51.00
2024-04-21T05:05:48.295Z,50.90
2024-04-21T05:08:18.482Z,50.90
2024-04-21T05:10:45.824Z,50.90
2024-04-21T05:13:15.835Z,51.10
2024-04-21T05:15:44.709Z,51.20
2024-04-21T05:18:17.429Z,51.20
2024-04-21T05:20:44.867Z,51.50
2024-04-21T05:23:15.069Z,51.40
2024-04-21T05:25:42.448Z,51.60
2024-04-21T05:28:12.474Z,51.50
2024-04-21T05:30:39.935Z,51.70
2024-04-21T05:33:09.957Z,51.70
2024-04-21T05:35:42.114Z,51.60
2024-04-21T05:38:12.195Z,51.80
2024-04-21T05:40:39.662Z,51.80
2024-04-21T05:43:09.699Z,51.70
2024-04-21T05:45:37.074Z,51.70
2024-04-21T05:48:07.918Z,51.70
2024-04-21T05:50:35.405Z,51.80
2024-04-21T05:53:08.227Z,51.80
2024-04-21T05:55:35.761Z,51.70
2024-04-21T05:58:05.925Z,51.80
2024-04-21T06:00:33.517Z,51.70
2024-04-21T06:03:03.605Z,51.60
2024-04-21T06:05:31.037Z,51.70
2024-04-21T06:08:01.089Z,51.50
2024-04-21T06:10:31.079Z,51.70
2024-04-21T06:13:01.165Z,51.60
2024-04-21T06:15:28.626Z,51.70
2024-04-21T06:17:58.632Z,51.60
2024-04-21T06:20:26.064Z,51.60
2024-04-21T06:22:56.695Z,51.60
2024-04-21T06:25:24.169Z,51.40
2024-04-21T06:27:56.863Z,51.40
2024-04-21T06:30:24.406Z,51.50
2024-04-21T06:32:54.664Z,51.60
2024-04-21T06:35:22.058Z,51.50
2024-04-21T06:37:52.103Z,51.60
2024-04-21T06:40:19.919Z,51.50
2024-04-21T06:42:50.020Z,51.50
2024-04-21T06:45:20.140Z,51.50
2024-04-21T06:47:50.318Z,51.50
2024-04-21T06:50:17.768Z,51.50
2024-04-21T06:52:47.807Z,51.50
2024-04-21T06:55:15.299Z,51.50
2024-04-21T06:57:45.789Z,51.50
2024-04-21T07:00:13.961Z,51.60
2024-04-21T07:02:46.590Z,51.60
2024-04-21T07:05:14.081Z,51.60
2024-04-21T07:07:44.082Z,51.60
2024-04-21T07:10:11.535Z,51.70
2024-04-21T07:12:41.666Z,51.70
2024-04-21T07:15:09.127Z,51.70
2024-04-21T07:17:39.159Z,51.70
2024-04-21T07:20:09.839Z,51.70
2024-04-21T07:22:39.864Z,51.70
2024-04-21T07:25:16.062Z,51.70
2024-04-21T07:27:49.931Z,51.70
2024-04-21T07:30:17.496Z,51.60
2024-04-21T07:32:47.640Z,51.60
2024-04-21T07:35:17.938Z,51.50
2024-04-21T07:37:47.938Z,51.50
2024-04-21T07:40:17.089Z,51.50
2024-04-21T07:42:47.280Z,51.40
2024-04-21T07:45:14.833Z,51.40
2024-04-21T07:47:44.880Z,51.30
2024-04-21T07:50:12.329Z,51.30
2024-04-21T07:52:44.932Z,51.30
2024-04-21T07:55:12.372Z,51.30
2024-04-21T07:57:42.430Z,51.20
2024-04-21T08:00:10.669Z,51.10
2024-04-21T08:02:44.104Z,51.00
2024-04-21T08:05:11.573Z,51.00
2024-04-21T08:07:44.327Z,50.90
2024-04-21T08:10:11.767Z,50.90
2024-04-21T08:12:41.921Z,50.90
2024-04-21T08:15:09.361Z,50.90
2024-04-21T08:17:39.481Z,50.90
2024-04-21T08:20:08.523Z,50.90
2024-04-21T08:22:38.566Z,51.10
2024-04-21T08:25:08.794Z,51.10
2024-04-21T08:27:39.423Z,51.20
2024-04-21T08:30:08.391Z,51.20
2024-04-21T08:32:38.425Z,51.30
2024-04-21T08:35:06.315Z,51.30
2024-04-21T08:37:36.456Z,51.40
2024-04-21T08:40:04.430Z,51.40
2024-04-21T08:42:39.026Z,51.40
2024-04-21T08:45:08.411Z,51.50
2024-04-21T08:47:39.227Z,51.50
2024-04-21T08:50:09.758Z,51.50
2024-04-21T08:52:39.828Z,51.50
2024-04-21T08:55:08.811Z,51.50
2024-04-21T08:57:42.947Z,51.50
2024-04-21T09:00:15.316Z,51.40
2024-04-21T09:02:46.859Z,51.40
2024-04-21T09:05:14.378Z,51.30
2024-04-21T09:07:45.079Z,51.30
2024-04-21T09:10:15.955Z,51.30
2024-04-21T09:12:49.411Z,51.30
2024-04-21T09:15:17.212Z,51.10
2024-04-21T09:17:47.315Z,51.10
2024-04-21T09:20:14.819Z,51.10
2024-04-21T09:22:44.878Z,51.00
2024-04-21T09:25:12.267Z,51.00
2024-04-21T09:27:42.336Z,50.90
2024-04-21T09:30:12.602Z,50.80
2024-04-21T09:32:43.071Z,50.80
2024-04-21T09:35:11.658Z,50.80
2024-04-21T09:37:47.113Z,50.70
2024-04-21T09:40:16.263Z,50.70
2024-04-21T09:42:48.124Z,50.70
2024-04-21T09:45:18.805Z,50.70
2024-04-21T09:47:50.140Z,50.70
2024-04-21T09:50:18.596Z,50.70
2024-04-21T09:52:52.158Z,50.70
2024-04-21T09:55:20.031Z,50.70
2024-04-21T09:57:59.643Z,50.70
2024-04-21T10:00:32.483Z,50.80
2024-04-21T10:03:06.344Z,50.80
2024-04-21T10:05:34.983Z,50.80
2024-04-21T10:08:06.085Z,50.80
2024-04-21T10:10:37.242Z,50.80
2024-04-21T10:13:08.935Z,50.80
2024-04-21T10:15:39.184Z,50.80
2024-04-21T10:18:09.485Z,50.70
2024-04-21T10:20:38.126Z,50.70
2024-04-21T10:23:11.605Z,50.70
2024-04-21T10:25:41.894Z,50.70
2024-04-21T10:28:13.340Z,50.70
2024-04-21T10:30:43.545Z,50.70
2024-04-21T10:33:16.516Z,50.70
2024-04-21T10:35:43.997Z,50.60
2024-04-21T10:38:16.092Z,50.50
2024-04-21T10:40:47.265Z,50.60
2024-04-21T10:43:21.904Z,50.50
2024-04-21T10:45:55.149Z,50.50
2024-04-21T10:48:26.905Z,50.40
2024-04-21T10:50:54.662Z,50.40
2024-04-21T10:53:24.769Z,50.40
2024-04-21T10:55:55.410Z,50.30
2024-04-21T10:58:25.851Z,50.40
2024-04-21T11:00:55.996Z,50.30
2024-04-21T11:03:26.159Z,50.30
2024-04-21T11:06:01.157Z,50.40
2024-04-21T11:08:32.382Z,50.30
2024-04-21T11:10:59.930Z,50.40
2024-04-21T11:13:31.891Z,50.40
2024-04-21T11:16:02.225Z,50.60
2024-04-21T11:18:32.436Z,50.60
2024-04-21T11:20:59.927Z,50.60
2024-04-21T11:23:30.279Z,50.70
2024-04-21T11:25:57.718Z,50.70
2024-04-21T11:28:27.765Z,50.80
2024-04-21T11:31:06.122Z,50.80
2024-04-21T11:33:36.938Z,50.90
2024-04-21T11:36:07.207Z,50.90
2024-04-21T11:38:37.286Z,51.00
2024-04-21T11:41:05.152Z,50.90
2024-04-21T11:43:35.433Z,50.90
2024-04-21T11:46:06.141Z,50.90
2024-04-21T11:48:37.367Z,50.90
2024-04-21T11:51:06.299Z,50.90
2024-04-21T11:53:36.572Z,50.80
2024-04-21T11:56:07.101Z,50.70
2024-04-21T11:58:35.602Z,50.70
2024-04-21T12:01:08.902Z,50.60
2024-04-21T12:03:36.572Z,50.50
2024-04-21T12:06:07.131Z,50.50
2024-04-21T12:08:34.569Z,50.50
2024-04-21T12:11:05.500Z,50.40
2024-04-21T12:13:32.966Z,50.40
2024-04-21T12:16:03.282Z,50.40
2024-04-21T12:18:33.350Z,50.50
2024-04-21T12:21:03.448Z,50.40
2024-04-21T12:23:30.873Z,50.40
2024-04-21T12:26:00.799Z,50.40
2024-04-21T12:28:28.841Z,50.50
2024-04-21T12:31:01.908Z,50.50
2024-04-21T12:33:32.106Z,50.60
2024-04-21T12:36:02.237Z,50.60
2024-04-21T12:38:32.311Z,50.70
2024-04-21T12:41:01.056Z,50.70
2024-04-21T12:43:31.082Z,50.70
2024-04-21T12:45:58.662Z,50.70
2024-04-21T12:48:28.779Z,50.80
2024-04-21T12:50:56.798Z,50.80
2024-04-21T12:53:29.988Z,50.80
2024-04-21T12:56:00.081Z,50.80
2024-04-21T12:58:27.536Z,50.80
2024-04-21T13:00:57.663Z,50.70
2024-04-21T13:03:27.862Z,50.70
2024-04-21T13:05:57.925Z,50.80
2024-04-21T13:08:29.063Z,50.70
2024-04-21T13:10:59.449Z,50.70
2024-04-21T13:13:27.753Z,50.60
2024-04-21T13:15:57.936Z,50.60
2024-04-21T13:18:25.374Z,50.60
2024-04-21T13:20:55.398Z,50.50
2024-04-21T13:23:22.788Z,50.40
2024-04-21T13:25:55.427Z,50.40
2024-04-21T13:28:22.959Z,50.30
2024-04-21T13:30:54.613Z,50.20
2024-04-21T13:33:22.937Z,50.20
2024-04-21T13:35:52.981Z,50.10
2024-04-21T13:38:20.334Z,50.10
2024-04-21T13:40:51.069Z,50.00
2024-04-21T13:43:21.244Z,50.00
2024-04-21T13:45:51.282Z,50.20
2024-04-21T13:48:18.923Z,50.10
2024-04-21T13:50:49.039Z,50.00
2024-04-21T13:53:16.948Z,50.10
2024-04-21T13:55:47.152Z,50.10
2024-04-21T13:58:14.602Z,50.10
2024-04-21T14:00:47.421Z,50.10
2024-04-21T14:03:14.930Z,50.20
2024-04-21T14:05:45.489Z,50.10
2024-04-21T14:08:12.886Z,50.10
2024-04-21T14:10:43.036Z,50.10
2024-04-21T14:13:10.548Z,50.10
2024-04-21T14:15:40.535Z,50.10
2024-04-21T14:18:10.692Z,50.10
2024-04-21T14:20:40.809Z,50.10
2024-04-21T14:23:08.221Z,50.10
2024-04-21T14:25:38.241Z,50.20
2024-04-21T14:28:06.178Z,50.20
2024-04-21T14:30:36.227Z,50.10
2024-04-21T14:33:04.016Z,50.10
2024-04-21T14:35:36.794Z,50.10
2024-04-21T14:38:04.409Z,50.10
2024-04-21T14:40:34.652Z,50.10
2024-04-21T14:43:02.169Z,50.10
2024-04-21T14:45:32.324Z,50.10
2024-04-21T14:47:59.768Z,50.10
2024-04-21T14:50:29.998Z,50.10
2024-04-21T14:53:00.178Z,50.10
2024-04-21T14:55:30.352Z,50.10
2024-04-21T14:57:57.985Z,50.10
2024-04-21T15:00:28.045Z,50.10
2024-04-21T15:02:55.512Z,50.10
2024-04-21T15:05:25.642Z,50.10
2024-04-21T15:07:53.112Z,50.10
2024-04-21T15:10:25.868Z,50.20
2024-04-21T15:12:53.761Z,50.20
2024-04-21T15:15:23.827Z,50.30
2024-04-21T15:17:51.308Z,50.30
2024-04-21T15:20:21.414Z,50.40
2024-04-21T15:22:48.842Z,50.50
2024-04-21T15:25:19.921Z,50.50
2024-04-21T15:27:51.971Z,50.60
2024-04-21T15:30:24.100Z,50.60
2024-04-21T15:32:51.657Z,50.70
2024-04-21T15:35:21.854Z,50.70
2024-04-21T15:37:49.309Z,50.70
2024-04-21T15:40:19.930Z,50.80
2024-04-21T15:42:50.085Z,50.70
2024-04-21T15:45:20.861Z,50.70
2024-04-21T15:47:48.482Z,50.80
2024-04-21T15:50:18.616Z,50.70
2024-04-21T15:52:46.129Z,50.80
2024-04-21T15:55:16.833Z,50.80
2024-04-21T15:57:44.469Z,50.70
2024-04-21T16:00:17.889Z,50.70
2024-04-21T16:02:45.340Z,50.70
2024-04-21T16:05:15.372Z,50.70
2024-04-21T16:07:42.848Z,50.60
2024-04-21T16:10:13.040Z,50.50
2024-04-21T16:12:41.379Z,50.50
2024-04-21T16:15:14.360Z,50.50
2024-04-21T16:17:46.534Z,50.50
2024-04-21T16:20:16.692Z,50.50
2024-04-21T16:22:46.760Z,50.40
2024-04-21T16:25:17.265Z,50.50
2024-04-21T16:27:46.541Z,50.40
2024-04-21T16:30:17.640Z,50.50
2024-04-21T16:32:47.875Z,50.50
2024-04-21T16:35:18.565Z,50.50
2024-04-21T16:37:46.625Z,50.50
2024-04-21T16:40:17.954Z,50.50
2024-04-21T16:42:45.960Z,50.50
2024-04-21T16:45:16.900Z,50.60
2024-04-21T16:47:48.650Z,50.60
2024-04-21T16:50:19.590Z,50.60
2024-04-21T16:52:48.042Z,50.60
2024-04-21T16:55:18.707Z,50.70
2024-04-21T16:57:53.686Z,50.70
2024-04-21T17:00:25.040Z,50.70
2024-04-21T17:02:55.737Z,50.70
2024-04-21T17:05:26.630Z,50.70
2024-04-21T17:08:05.302Z,50.70
2024-04-21T17:10:36.016Z,50.70
2024-04-21T17:13:03.710Z,50.70
2024-04-21T17:15:34.061Z,50.70
2024-04-21T17:18:04.634Z,50.70
2024-04-21T17:20:36.571Z,50.70
2024-04-21T17:23:06.974Z,50.70
2024-04-21T17:25:38.868Z,50.70
2024-04-21T17:28:07.486Z,50.70
2024-04-21T17:30:38.399Z,50.60
2024-04-21T17:33:08.751Z,50.60
2024-04-21T17:35:38.999Z,50.60
2024-04-21T17:38:06.599Z,50.60
2024-04-21T17:40:36.882Z,50.60
2024-04-21T17:43:05.510Z,50.60
2024-04-21T17:45:37.204Z,50.60
2024-04-21T17:48:09.543Z,50.70
2024-04-21T17:50:40.258Z,50.70
2024-04-21T17:53:07.703Z,50.80
2024-04-21T17:55:37.741Z,50.80
2024-04-21T17:58:05.534Z,50.80
2024-04-21T18:00:35.657Z,50.90
2024-04-21T18:03:03.252Z,51.00
2024-04-21T18:05:39.108Z,51.00
2024-04-21T18:08:06.901Z,51.10
2024-04-21T18:10:36.984Z,51.10
2024-04-21T18:13:05.145Z,51.20
2024-04-21T18:15:35.210Z,51.20
2024-04-21T18:18:02.672Z,51.20
2024-04-21T18:20:35.470Z,51.30
2024-04-21T18:23:02.920Z,51.30
2024-04-21T18:25:33.345Z,51.30
2024-04-21T18:28:00.833Z,51.30
2024-04-21T18:30:32.053Z,51.30
2024-04-21T18:32:59.687Z,51.30
2024-04-21T18:35:29.747Z,51.30
2024-04-21T18:37:59.811Z,51.40
2024-04-21T18:40:31.854Z,51.30
2024-04-21T18:42:59.412Z,51.30
2024-04-21T18:45:29.619Z,51.30
2024-04-21T18:47:57.385Z,51.30
2024-04-21T18:50:27.458Z,51.20
2024-04-21T18:52:54.953Z,51.20
2024-04-21T18:55:27.746Z,51.10
2024-04-21T18:57:55.201Z,51.10
2024-04-21T19:00:25.282Z,51.00
2024-04-21T19:02:53.540Z,51.00
2024-04-21T19:05:23.815Z,51.00
2024-04-21T19:07:51.302Z,51.00
2024-04-21T19:10:22.333Z,51.00
2024-04-21T19:12:53.258Z,51.10
2024-04-21T19:15:24.243Z,51.10
2024-04-21T19:17:52.371Z,51.10
2024-04-21T19:20:24.279Z,51.10
2024-04-21T19:22:52.241Z,51.20
2024-04-21T19:25:22.343Z,51.20
2024-04-21T19:27:52.383Z,51.30
2024-04-21T19:30:22.602Z,51.40
2024-04-21T19:32:50.123Z,51.50
2024-04-21T19:35:20.478Z,51.50
2024-04-21T19:37:47.981Z,51.50
2024-04-21T19:40:18.228Z,51.50
2024-04-21T19:42:45.800Z,51.50
2024-04-21T19:45:18.909Z,51.50
2024-04-21T19:47:46.498Z,51.50
2024-04-21T19:50:16.665Z,51.50
2024-04-21T19:52:44.126Z,51.50
2024-04-21T19:55:14.219Z,51.50
2024-04-21T19:57:42.034Z,51.50
2024-04-21T20:00:14.523Z,51.50
2024-04-21T20:02:44.758Z,51.50
2024-04-21T20:05:14.864Z,51.50
2024-04-21T20:11:44.924Z,51.50
2024-04-21T20:14:12.460Z,51.50
2024-04-21T20:16:58.563Z,51.50
2024-04-21T20:19:31.316Z,51.50
2024-04-21T20:22:01.406Z,51.50
2024-04-21T20:24:31.494Z,51.60
2024-04-21T20:27:04.620Z,51.60
2024-04-21T20:29:32.777Z,51.60
2024-04-21T20:32:02.834Z,51.60
2024-04-21T20:34:35.811Z,51.60
2024-04-21T20:37:03.417Z,51.60
2024-04-21T20:39:33.517Z,51.50
2024-04-21T20:42:01.013Z,51.50
2024-04-21T20:44:31.019Z,51.60
2024-04-21T20:46:58.540Z,51.60
2024-04-21T20:49:28.584Z,51.60
2024-04-21T20:51:58.617Z,51.60
2024-04-21T20:54:28.686Z,51.60
2024-04-21T20:56:56.051Z,51.70
2024-04-21T20:59:26.124Z,51.70
2024-04-21T21:01:55.169Z,51.80
2024-04-21T21:04:25.254Z,51.80
2024-04-21T21:06:52.654Z,51.90
2024-04-21T21:09:25.308Z,52.00
2024-04-21T21:11:52.698Z,52.00
2024-04-21T21:14:24.565Z,52.00
2024-04-21T21:16:51.968Z,52.00
2024-04-21T21:19:22.011Z,52.10
2024-04-21T21:21:49.471Z,52.10
2024-04-21T21:24:20.044Z,52.10
2024-04-21T21:26:50.965Z,52.10
2024-04-21T21:29:21.298Z,52.10
2024-04-21T21:31:48.999Z,52.10
2024-04-21T21:34:19.134Z,52.00
2024-04-21T21:36:46.748Z,52.00
2024-04-21T21:39:17.457Z,52.00
2024-04-21T21:41:44.823Z,52.00
2024-04-21T21:44:17.446Z,52.00
2024-04-21T21:46:44.886Z,52.00
2024-04-21T21:49:15.225Z,52.00
2024-04-21T21:51:42.697Z,51.90
2024-04-21T21:54:12.768Z,51.90
2024-04-21T21:56:40.160Z,52.00
2024-04-21T21:59:10.224Z,52.00
2024-04-21T22:01:40.301Z,52.00
2024-04-21T22:04:10.534Z,52.00
2024-04-21T22:06:37.954Z,51.90
2024-04-21T22:09:07.987Z,52.00
2024-04-21T22:11:35.650Z,52.00
2024-04-21T22:14:05.707Z,52.00
2024-04-21T22:16:33.073Z,52.00
2024-04-21T22:19:05.835Z,52.00
2024-04-21T22:21:33.384Z,52.00
2024-04-21T22:24:03.581Z,52.10
2024-04-21T22:26:31.045Z,52.10
2024-04-21T22:29:01.024Z,52.10
2024-04-21T22:31:32.667Z,52.10
2024-04-21T22:34:12.705Z,52.20
2024-04-21T22:36:40.108Z,52.20
2024-04-21T22:39:10.267Z,52.20
2024-04-21T22:41:37.699Z,52.30
2024-04-21T22:44:07.967Z,52.30
2024-04-21T22:46:35.512Z,52.30
2024-04-21T22:49:05.683Z,52.30
2024-04-21T22:51:35.706Z,52.30
2024-04-21T22:54:06.266Z,52.40
2024-04-21T22:56:33.715Z,52.40
2024-04-21T22:59:03.738Z,52.40
2024-04-21T23:01:31.153Z,52.40
2024-04-21T23:04:01.144Z,52.40
2024-04-21T23:06:28.507Z,52.50
2024-04-21T23:09:02.209Z,52.50
2024-04-21T23:11:29.683Z,52.50
2024-04-21T23:13:59.950Z,52.50
2024-04-21T23:16:30.037Z,52.50
2024-04-21T23:18:57.421Z,52.50
2024-04-21T23:21:27.470Z,52.60
2024-04-21T23:23:55.142Z,52.60
2024-04-21T23:26:27.891Z,52.60
2024-04-21T23:28:55.376Z,52.60
2024-04-21T23:31:27.236Z,52.60
2024-04-21T23:33:55.079Z,52.70
2024-04-21T23:36:25.085Z,52.70
2024-04-21T23:38:55.875Z,52.70
2024-04-21T23:41:28.572Z,52.70
2024-04-21T23:43:56.839Z,52.70
2024-04-21T23:46:26.924Z,52.70
2024-04-21T23:48:56.538Z,52.70
2024-04-21T23:51:26.564Z,52.70
2024-04-21T23:53:53.982Z,52.70
2024-04-21T23:56:24.013Z,52.70
2024-04-21T23:58:54.212Z,52.70
